createdAt,value
2022-10-03T00:00:08.766Z,9.279995
2022-10-03T00:01:08.771Z,9.279852
2022-10-03T00:02:08.792Z,9.279946
2022-10-03T00:03:08.766Z,9.279987
2022-10-03T00:04:08.688Z,9.279967
2022-10-03T00:05:08.672Z,9.280027
2022-10-03T00:06:08.656Z,9.279976
2022-10-03T00:07:08.666Z,9.279992
2022-10-03T00:08:08.620Z,9.279934
2022-10-03T00:09:08.601Z,9.279902
2022-10-03T00:10:08.582Z,9.279818
2022-10-03T00:11:08.560Z,9.279882
2022-10-03T00:12:08.562Z,9.279902
2022-10-03T00:13:09.522Z,9.279964
2022-10-03T00:14:08.511Z,9.279977
2022-10-03T00:15:08.493Z,9.279986
2022-10-03T00:16:08.505Z,9.279975
2022-10-03T00:17:08.483Z,9.279946
2022-10-03T00:18:08.426Z,9.279845
2022-10-03T00:19:08.432Z,9.279938
2022-10-03T00:20:08.405Z,9.279958
2022-10-03T00:21:08.386Z,9.279950
2022-10-03T00:22:08.398Z,9.280015
2022-10-03T00:23:08.356Z,9.279962
2022-10-03T00:24:08.332Z,9.279897
2022-10-03T00:25:08.314Z,9.279922
2022-10-03T00:26:08.300Z,9.279946
2022-10-03T00:27:08.307Z,9.279936
2022-10-03T00:28:08.273Z,9.279899
2022-10-03T00:29:08.253Z,9.279895
2022-10-03T00:30:08.230Z,9.280133
2022-10-03T00:31:08.228Z,9.280052
2022-10-03T00:32:08.224Z,9.279982
2022-10-03T00:33:08.178Z,9.280007
2022-10-03T00:34:08.160Z,9.280022
2022-10-03T00:35:08.149Z,9.280042
2022-10-03T00:36:08.130Z,9.279856
2022-10-03T00:37:08.135Z,9.279929
2022-10-03T00:38:08.088Z,9.279973
2022-10-03T00:39:08.072Z,9.280008
2022-10-03T00:40:08.054Z,9.279963
2022-10-03T00:41:08.033Z,9.279975
2022-10-03T00:42:08.045Z,9.279982
2022-10-03T00:43:07.999Z,9.279986
2022-10-03T00:44:07.983Z,9.279961
2022-10-03T00:45:07.963Z,9.279958
2022-10-03T00:46:08.074Z,9.279954
2022-10-03T00:47:07.955Z,9.279962
2022-10-03T00:48:07.904Z,9.279909
2022-10-03T00:49:08.618Z,9.279945
2022-10-03T00:50:07.877Z,9.279909
2022-10-03T00:51:07.854Z,9.279897
2022-10-03T00:52:07.862Z,9.279965
2022-10-03T00:53:07.819Z,9.279942
2022-10-03T00:54:07.804Z,9.279922
2022-10-03T00:55:08.652Z,9.279968
2022-10-03T00:56:07.784Z,9.279973
2022-10-03T00:57:07.780Z,9.279968
2022-10-03T00:58:07.743Z,9.279955
2022-10-03T00:59:07.728Z,9.279929
2022-10-03T01:00:07.697Z,9.279999
2022-10-03T01:01:07.747Z,9.280074
2022-10-03T01:02:07.690Z,9.280032
2022-10-03T01:03:07.643Z,9.280059
2022-10-03T01:04:07.622Z,9.280024
2022-10-03T01:05:07.612Z,9.279976
2022-10-03T01:06:07.622Z,9.279975
2022-10-03T01:07:07.569Z,9.279983
2022-10-03T01:08:07.542Z,9.279880
2022-10-03T01:09:08.536Z,9.279945
2022-10-03T01:10:07.520Z,9.279907
2022-10-03T01:11:07.525Z,9.279896
2022-10-03T01:12:07.480Z,9.279943
2022-10-03T01:13:07.470Z,9.279927
2022-10-03T01:14:07.450Z,9.279947
2022-10-03T01:15:07.432Z,9.279911
2022-10-03T01:16:07.475Z,9.279891
2022-10-03T01:17:07.416Z,9.279983
2022-10-03T01:18:07.376Z,9.280009
2022-10-03T01:19:07.357Z,9.279950
2022-10-03T01:20:07.337Z,9.279963
2022-10-03T01:21:07.353Z,9.279995
2022-10-03T01:22:07.303Z,9.279967
2022-10-03T01:23:07.289Z,9.279885
2022-10-03T01:24:07.269Z,9.279841
2022-10-03T01:25:07.248Z,9.279930
2022-10-03T01:26:07.260Z,9.279940
2022-10-03T01:27:07.211Z,9.280041
2022-10-03T01:28:07.224Z,9.280068
2022-10-03T01:29:07.180Z,9.279938
2022-10-03T01:30:07.164Z,9.279861
2022-10-03T01:31:07.227Z,9.279936
2022-10-03T01:32:07.153Z,9.279903
2022-10-03T01:33:07.115Z,9.279951
2022-10-03T01:34:07.085Z,9.279934
2022-10-03T01:35:07.074Z,9.279902
2022-10-03T01:36:07.077Z,9.279941
2022-10-03T01:37:07.035Z,9.279881
2022-10-03T01:38:07.013Z,9.279994
2022-10-03T01:39:06.996Z,9.280004
2022-10-03T01:40:06.977Z,9.280042
2022-10-03T01:41:06.985Z,9.280023
2022-10-03T01:42:06.939Z,9.279944
2022-10-03T01:43:06.922Z,9.279841
2022-10-03T01:44:06.907Z,9.280023
2022-10-03T01:45:06.886Z,9.280065
2022-10-03T01:46:06.943Z,9.279926
2022-10-03T01:47:06.851Z,9.279958
2022-10-03T01:48:06.831Z,9.279933
2022-10-03T01:49:06.814Z,9.279981
2022-10-03T01:50:06.798Z,9.280013
2022-10-03T01:51:06.813Z,9.279996
2022-10-03T01:52:06.762Z,9.279971
2022-10-03T01:53:06.743Z,9.279979
2022-10-03T01:54:06.724Z,9.280021
2022-10-03T01:55:06.707Z,9.279909
2022-10-03T01:56:06.716Z,9.279973
2022-10-03T01:57:06.670Z,9.280016
2022-10-03T01:58:06.659Z,9.279980
2022-10-03T01:59:06.637Z,9.279941
2022-10-03T02:00:06.622Z,9.279972
2022-10-03T02:01:06.659Z,9.279905
2022-10-03T02:02:06.613Z,9.279936
2022-10-03T02:03:06.574Z,9.280005
2022-10-03T02:04:06.551Z,9.280015
2022-10-03T02:05:06.531Z,9.279990
2022-10-03T02:06:06.552Z,9.280131
2022-10-03T02:07:06.503Z,9.280001
2022-10-03T02:08:06.482Z,9.280004
2022-10-03T02:09:06.466Z,9.280069
2022-10-03T02:10:06.443Z,9.280043
2022-10-03T02:11:06.458Z,9.279945
2022-10-03T02:12:06.410Z,9.280067
2022-10-03T02:13:06.394Z,9.280027
2022-10-03T02:14:06.378Z,9.280014
2022-10-03T02:15:06.350Z,9.280029
2022-10-03T02:16:06.687Z,9.280100
2022-10-03T02:17:06.316Z,9.280109
2022-10-03T02:18:06.296Z,9.280007
2022-10-03T02:19:06.283Z,9.280082
2022-10-03T02:20:06.266Z,9.280047
2022-10-03T02:21:06.276Z,9.280037
2022-10-03T02:22:06.228Z,9.280091
2022-10-03T02:23:06.214Z,9.279965
2022-10-03T02:24:06.199Z,9.280075
2022-10-03T02:25:06.179Z,9.280041
2022-10-03T02:26:06.199Z,9.280028
2022-10-03T02:27:06.143Z,9.280040
2022-10-03T02:28:06.163Z,9.279808
2022-10-03T02:29:06.109Z,9.279967
2022-10-03T02:30:06.095Z,9.280031
2022-10-03T02:31:06.155Z,9.280051
2022-10-03T02:32:06.057Z,9.280059
2022-10-03T02:33:06.036Z,9.280130
2022-10-03T02:34:06.022Z,9.280006
2022-10-03T02:35:05.997Z,9.280115
2022-10-03T02:36:06.010Z,9.280122
2022-10-03T02:37:05.968Z,9.280009
2022-10-03T02:38:05.948Z,9.280030
2022-10-03T02:39:05.931Z,9.279941
2022-10-03T02:40:05.916Z,9.279895
2022-10-03T02:41:05.921Z,9.279860
2022-10-03T02:42:05.876Z,9.279880
2022-10-03T02:43:05.866Z,9.279885
2022-10-03T02:44:05.848Z,9.279882
2022-10-03T02:45:05.831Z,9.279864
2022-10-03T02:46:05.872Z,9.279897
2022-10-03T02:47:05.796Z,9.279907
2022-10-03T02:48:30.264Z,9.279893
2022-10-03T02:49:07.759Z,9.279867
2022-10-03T02:50:05.754Z,9.279935
2022-10-03T02:51:05.746Z,9.279889
2022-10-03T02:52:05.704Z,9.279872
2022-10-03T02:53:05.685Z,9.279858
2022-10-03T02:54:05.662Z,9.279915
2022-10-03T02:55:05.645Z,9.279850
2022-10-03T02:56:05.659Z,9.279773
2022-10-03T02:57:05.611Z,9.279975
2022-10-03T02:58:05.594Z,9.279900
2022-10-03T02:59:05.573Z,9.279931
2022-10-03T03:00:05.563Z,9.279759
2022-10-03T03:01:05.606Z,9.279477
2022-10-03T03:02:05.572Z,9.279774
2022-10-03T03:03:05.510Z,9.279790
2022-10-03T03:04:05.487Z,9.279814
2022-10-03T03:05:05.468Z,9.279801
2022-10-03T03:06:05.478Z,9.279828
2022-10-03T03:07:05.433Z,9.279845
2022-10-03T03:08:05.417Z,9.279842
2022-10-03T03:09:05.386Z,9.279957
2022-10-03T03:10:06.381Z,9.279956
2022-10-03T03:11:05.390Z,9.279963
2022-10-03T03:12:05.348Z,9.279966
2022-10-03T03:13:05.334Z,9.279929
2022-10-03T03:14:05.310Z,9.279887
2022-10-03T03:15:05.294Z,9.279836
2022-10-03T03:16:05.339Z,9.279878
2022-10-03T03:17:05.259Z,9.279871
2022-10-03T03:18:05.248Z,9.279855
2022-10-03T03:19:05.226Z,9.279840
2022-10-03T03:20:05.209Z,9.279830
2022-10-03T03:21:05.217Z,9.279777
2022-10-03T03:22:05.174Z,9.279833
2022-10-03T03:23:05.157Z,9.279842
2022-10-03T03:24:05.135Z,9.279840
2022-10-03T03:25:05.126Z,9.279824
2022-10-03T03:26:05.128Z,9.279779
2022-10-03T03:27:05.105Z,9.279826
2022-10-03T03:28:05.108Z,9.279857
2022-10-03T03:29:05.045Z,9.279800
2022-10-03T03:30:05.029Z,9.279857
2022-10-03T03:31:05.044Z,9.279868
2022-10-03T03:32:05.040Z,9.279753
2022-10-03T03:33:04.979Z,9.279780
2022-10-03T03:34:04.958Z,9.279846
2022-10-03T03:35:04.937Z,9.279777
2022-10-03T03:36:04.949Z,9.279805
2022-10-03T03:37:04.904Z,9.279831
2022-10-03T03:38:04.907Z,9.279861
2022-10-03T03:39:04.872Z,9.279839
2022-10-03T03:40:04.849Z,9.279874
2022-10-03T03:41:05.577Z,9.279845
2022-10-03T03:42:04.809Z,9.279912
2022-10-03T03:43:04.796Z,9.279922
2022-10-03T03:44:04.791Z,9.279873
2022-10-03T03:45:04.763Z,9.279823
2022-10-03T03:46:04.844Z,9.279863
2022-10-03T03:47:04.726Z,9.279898
2022-10-03T03:48:04.710Z,9.279852
2022-10-03T03:49:04.692Z,9.279857
2022-10-03T03:50:04.677Z,9.279794
2022-10-03T03:51:04.683Z,9.279828
2022-10-03T03:52:04.638Z,9.279881
2022-10-03T03:53:04.621Z,9.279901
2022-10-03T03:54:04.607Z,9.279909
2022-10-03T03:55:04.586Z,9.279918
2022-10-03T03:56:04.591Z,9.279936
2022-10-03T03:57:05.551Z,9.279968
2022-10-03T03:58:04.546Z,9.279919
2022-10-03T03:59:04.517Z,9.279908
2022-10-03T04:00:04.502Z,9.279867
2022-10-03T04:01:04.549Z,9.279886
2022-10-03T04:02:04.536Z,9.279972
2022-10-03T04:03:04.444Z,9.279960
2022-10-03T04:04:04.431Z,9.279975
2022-10-03T04:05:04.411Z,9.279886
2022-10-03T04:06:04.419Z,9.279982
2022-10-03T04:07:04.374Z,9.279958
2022-10-03T04:08:04.361Z,9.279956
2022-10-03T04:09:04.342Z,9.279916
2022-10-03T04:10:04.322Z,9.279944
2022-10-03T04:11:04.331Z,9.279935
2022-10-03T04:12:04.309Z,9.279942
2022-10-03T04:13:04.264Z,9.279952
2022-10-03T04:14:04.252Z,9.279936
2022-10-03T04:15:04.236Z,9.279976
2022-10-03T04:16:04.283Z,9.279965
2022-10-03T04:17:04.190Z,9.280026
2022-10-03T04:18:04.174Z,9.280072
2022-10-03T04:19:04.157Z,9.280013
2022-10-03T04:20:04.138Z,9.279949
2022-10-03T04:21:04.143Z,9.279963
2022-10-03T04:22:04.098Z,9.279995
2022-10-03T04:23:04.077Z,9.279964
2022-10-03T04:24:04.071Z,9.279971
2022-10-03T04:25:04.041Z,9.280046
2022-10-03T04:26:04.057Z,9.280061
2022-10-03T04:27:04.007Z,9.280079
2022-10-03T04:28:04.035Z,9.280071
2022-10-03T04:29:03.977Z,9.280133
2022-10-03T04:30:03.957Z,9.280100
2022-10-03T04:31:03.966Z,9.280062
2022-10-03T04:32:03.982Z,9.280023
2022-10-03T04:33:03.918Z,9.280051
2022-10-03T04:34:03.891Z,9.280031
2022-10-03T04:35:03.871Z,9.279957
2022-10-03T04:36:03.880Z,9.280009
2022-10-03T04:37:03.835Z,9.279992
2022-10-03T04:38:03.814Z,9.279907
2022-10-03T04:39:03.803Z,9.279992
2022-10-03T04:40:03.776Z,9.280019
2022-10-03T04:41:03.788Z,9.280003
2022-10-03T04:42:03.746Z,9.279995
2022-10-03T04:43:03.724Z,9.279963
2022-10-03T04:44:03.697Z,9.279963
2022-10-03T04:45:04.686Z,9.280028
2022-10-03T04:46:03.745Z,9.280031
2022-10-03T04:47:03.649Z,9.279964
2022-10-03T04:48:03.631Z,9.280051
2022-10-03T04:49:03.617Z,9.279982
2022-10-03T04:50:03.595Z,9.279926
2022-10-03T04:51:03.604Z,9.279958
2022-10-03T04:52:03.558Z,9.280031
2022-10-03T04:53:03.547Z,9.280116
2022-10-03T04:54:03.526Z,9.279993
2022-10-03T04:55:03.519Z,9.279963
2022-10-03T04:56:03.515Z,9.279902
2022-10-03T04:57:03.497Z,9.279962
2022-10-03T04:58:05.342Z,9.279869
2022-10-03T04:59:05.431Z,9.279904
2022-10-03T05:00:03.414Z,9.280021
2022-10-03T05:01:03.449Z,9.279970
2022-10-03T05:02:04.463Z,9.279961
2022-10-03T05:03:03.374Z,9.279994
2022-10-03T05:04:03.370Z,9.279984
2022-10-03T05:05:03.345Z,9.279981
2022-10-03T05:06:03.345Z,9.279946
2022-10-03T05:07:03.305Z,9.279984
2022-10-03T05:08:03.299Z,9.279916
2022-10-03T05:09:03.271Z,9.280004
2022-10-03T05:10:07.260Z,9.279998
2022-10-03T05:11:05.257Z,9.279976
2022-10-03T05:12:03.215Z,9.279952
2022-10-03T05:13:03.201Z,9.279971
2022-10-03T05:14:03.176Z,9.279936
2022-10-03T05:15:03.163Z,9.279944
2022-10-03T05:16:03.167Z,9.279948
2022-10-03T05:17:03.123Z,9.280007
2022-10-03T05:18:03.130Z,9.279963
2022-10-03T05:19:03.091Z,9.279959
2022-10-03T05:20:03.088Z,9.279989
2022-10-03T05:21:03.076Z,9.280036
2022-10-03T05:22:03.042Z,9.279861
2022-10-03T05:23:03.018Z,9.279824
2022-10-03T05:24:03.020Z,9.279945
2022-10-03T05:25:02.982Z,9.279933
2022-10-03T05:26:32.323Z,9.280130
2022-10-03T05:27:05.946Z,9.279986
2022-10-03T05:28:03.052Z,9.279986
2022-10-03T05:29:02.910Z,9.279968
2022-10-03T05:30:02.896Z,9.279957
2022-10-03T05:31:02.899Z,9.280007
2022-10-03T05:32:02.870Z,9.279978
2022-10-03T05:33:07.639Z,9.280015
2022-10-03T05:34:04.820Z,9.280016
2022-10-03T05:35:02.798Z,9.279960
2022-10-03T05:36:02.808Z,9.279991
2022-10-03T05:37:02.767Z,9.279915
2022-10-03T05:38:02.745Z,9.280019
2022-10-03T05:39:02.730Z,9.280006
2022-10-03T05:40:02.731Z,9.279920
2022-10-03T05:41:02.718Z,9.279922
2022-10-03T05:42:21.676Z,9.279912
2022-10-03T05:43:04.661Z,9.279907
2022-10-03T05:44:02.652Z,9.279819
2022-10-03T05:45:02.633Z,9.279900
2022-10-03T05:46:02.722Z,9.280016
2022-10-03T05:47:02.588Z,9.280169
2022-10-03T05:48:02.572Z,9.280064
2022-10-03T05:49:02.552Z,9.280119
2022-10-03T05:50:05.535Z,9.280025
2022-10-03T05:51:03.540Z,9.280079
2022-10-03T05:52:02.499Z,9.280020
2022-10-03T05:53:02.487Z,9.279931
2022-10-03T05:54:02.468Z,9.279921
2022-10-03T05:55:02.448Z,9.279910
2022-10-03T05:56:02.460Z,9.280368
2022-10-03T05:57:02.412Z,9.279984
2022-10-03T05:58:02.403Z,9.279922
2022-10-03T05:59:02.375Z,9.279860
2022-10-03T06:00:02.359Z,9.279868
2022-10-03T06:01:02.373Z,9.280037
2022-10-03T06:02:02.354Z,9.279963
2022-10-03T06:03:02.374Z,9.280091
2022-10-03T06:04:05.854Z,9.279937
2022-10-03T06:05:03.266Z,9.279950
2022-10-03T06:06:02.281Z,9.280017
2022-10-03T06:07:02.229Z,9.279964
2022-10-03T06:08:02.208Z,9.279893
2022-10-03T06:09:02.193Z,9.279837
2022-10-03T06:10:02.172Z,9.279927
2022-10-03T06:11:02.183Z,9.279977
2022-10-03T06:12:02.142Z,9.280008
2022-10-03T06:13:02.120Z,9.280153
2022-10-03T06:14:02.103Z,9.279938
2022-10-03T06:15:02.083Z,9.280114
2022-10-03T06:16:02.112Z,9.280208
2022-10-03T06:17:02.047Z,9.280228
2022-10-03T06:18:02.027Z,9.279961
2022-10-03T06:19:02.009Z,9.279904
2022-10-03T06:20:01.992Z,9.279867
2022-10-03T06:21:01.997Z,9.280000
2022-10-03T06:22:01.954Z,9.279922
2022-10-03T06:23:05.737Z,9.279885
2022-10-03T06:24:02.916Z,9.279909
2022-10-03T06:25:01.913Z,9.279886
2022-10-03T06:26:01.905Z,9.279939
2022-10-03T06:27:01.870Z,9.279974
2022-10-03T06:28:01.891Z,9.279980
2022-10-03T06:29:01.831Z,9.280025
2022-10-03T06:30:01.808Z,9.280033
2022-10-03T06:31:01.831Z,9.279963
2022-10-03T06:32:01.776Z,9.279934
2022-10-03T06:33:01.757Z,9.279911
2022-10-03T06:34:01.737Z,9.279874
2022-10-03T06:35:01.722Z,9.279852
2022-10-03T06:36:01.729Z,9.279909
2022-10-03T06:37:01.689Z,9.279886
2022-10-03T06:38:01.665Z,9.279901
2022-10-03T06:39:01.646Z,9.279996
2022-10-03T06:40:04.095Z,9.279886
2022-10-03T06:41:02.723Z,9.279963
2022-10-03T06:42:01.602Z,9.279921
2022-10-03T06:43:01.577Z,9.279840
2022-10-03T06:44:01.558Z,9.279951
2022-10-03T06:45:01.547Z,9.279956
2022-10-03T06:46:01.612Z,9.279945
2022-10-03T06:47:01.499Z,9.279974
2022-10-03T06:48:01.483Z,9.279941
2022-10-03T06:49:01.464Z,9.279913
2022-10-03T06:50:01.452Z,9.279879
2022-10-03T06:51:01.461Z,9.279918
2022-10-03T06:52:01.414Z,9.279908
2022-10-03T06:53:01.396Z,9.279937
2022-10-03T06:54:01.372Z,9.279863
2022-10-03T06:55:01.358Z,9.279881
2022-10-03T06:56:01.366Z,9.279881
2022-10-03T06:57:01.324Z,9.279922
2022-10-03T06:58:01.298Z,9.279928
2022-10-03T06:59:01.282Z,9.279877
2022-10-03T07:00:01.260Z,9.279862
2022-10-03T07:01:01.313Z,9.279945
2022-10-03T07:02:01.310Z,9.279922
2022-10-03T07:03:01.277Z,9.279872
2022-10-03T07:04:01.192Z,9.279824
2022-10-03T07:05:01.176Z,9.279724
2022-10-03T07:06:01.186Z,9.279887
2022-10-03T07:07:01.134Z,9.279920
2022-10-03T07:08:01.117Z,9.279929
2022-10-03T07:09:01.098Z,9.279886
2022-10-03T07:10:01.081Z,9.279800
2022-10-03T07:11:01.091Z,9.279746
2022-10-03T07:12:01.042Z,9.279720
2022-10-03T07:13:01.025Z,9.279772
2022-10-03T07:14:01.006Z,9.279894
2022-10-03T07:15:00.992Z,9.279921
2022-10-03T07:16:27.996Z,9.280020
2022-10-03T07:17:02.982Z,9.280108
2022-10-03T07:18:00.935Z,9.280126
2022-10-03T07:19:00.914Z,9.279937
2022-10-03T07:20:00.901Z,9.279942
2022-10-03T07:21:00.911Z,9.279945
2022-10-03T07:22:00.867Z,9.279966
2022-10-03T07:23:00.840Z,9.279926
2022-10-03T07:24:00.824Z,9.279705
2022-10-03T07:25:00.807Z,9.279802
2022-10-03T07:26:00.816Z,9.279821
2022-10-03T07:27:01.458Z,9.279934
2022-10-03T07:28:00.782Z,9.279885
2022-10-03T07:29:00.729Z,9.279887
2022-10-03T07:30:00.720Z,9.279891
2022-10-03T07:31:00.776Z,9.279869
2022-10-03T07:32:00.679Z,9.279890
2022-10-03T07:33:00.711Z,9.279848
2022-10-03T07:34:00.638Z,9.279886
2022-10-03T07:35:00.650Z,9.279871
2022-10-03T07:36:00.633Z,9.279887
2022-10-03T07:37:00.580Z,9.279715
2022-10-03T07:38:00.567Z,9.279787
2022-10-03T07:39:00.548Z,9.279807
2022-10-03T07:40:00.530Z,9.279949
2022-10-03T07:41:00.608Z,9.279913
2022-10-03T07:42:00.493Z,9.279886
2022-10-03T07:43:00.469Z,9.279919
2022-10-03T07:44:00.457Z,9.279890
2022-10-03T07:45:00.429Z,9.279835
2022-10-03T07:46:00.474Z,9.279881
2022-10-03T07:47:00.399Z,9.279879
2022-10-03T07:48:00.375Z,9.279839
2022-10-03T07:49:00.353Z,9.279810
2022-10-03T07:50:00.331Z,9.279824
2022-10-03T07:51:00.336Z,9.279760
2022-10-03T07:52:00.297Z,9.279861
2022-10-03T07:53:00.277Z,9.280022
2022-10-03T07:54:00.263Z,9.279971
2022-10-03T07:55:00.241Z,9.279911
2022-10-03T07:56:00.314Z,9.279962
2022-10-03T07:57:00.195Z,9.279831
2022-10-03T07:58:00.179Z,9.279894
2022-10-03T07:59:00.156Z,9.279737
2022-10-03T08:00:00.164Z,9.279860
2022-10-03T08:01:00.157Z,9.279943
2022-10-03T08:02:00.103Z,9.279854
2022-10-03T08:03:00.160Z,9.279697
2022-10-03T08:04:00.150Z,9.279709
2022-10-03T08:05:01.033Z,9.279835
2022-10-03T08:06:00.042Z,9.279909
2022-10-03T08:06:59.995Z,9.279835
2022-10-03T08:07:59.974Z,9.279775
2022-10-03T08:08:59.958Z,9.279675
2022-10-03T08:09:59.935Z,9.279757
2022-10-03T08:10:59.937Z,9.279802
2022-10-03T08:11:59.892Z,9.279790
2022-10-03T08:12:59.872Z,9.279819
2022-10-03T08:13:59.851Z,9.279759
2022-10-03T08:14:59.826Z,9.279881
2022-10-03T08:15:59.927Z,9.279883
2022-10-03T08:16:59.781Z,9.279881
2022-10-03T08:17:59.770Z,9.279825
2022-10-03T08:18:59.772Z,9.279716
2022-10-03T08:19:59.716Z,9.279881
2022-10-03T08:20:59.728Z,9.279952
2022-10-03T08:21:59.674Z,9.279847
2022-10-03T08:22:59.660Z,9.279849
2022-10-03T08:23:59.638Z,9.279793
2022-10-03T08:25:02.897Z,9.279852
2022-10-03T08:26:00.625Z,9.279880
2022-10-03T08:26:59.576Z,9.279951
2022-10-03T08:27:59.588Z,9.279749
2022-10-03T08:28:59.538Z,9.279755
2022-10-03T08:29:59.515Z,9.279824
2022-10-03T08:30:59.593Z,9.279824
2022-10-03T08:31:59.475Z,9.279789
2022-10-03T08:32:59.458Z,9.279993
2022-10-03T08:33:59.435Z,9.279856
2022-10-03T08:34:59.416Z,9.279841
2022-10-03T08:35:59.421Z,9.279834
2022-10-03T08:36:59.375Z,9.279849
2022-10-03T08:37:59.358Z,9.279823
2022-10-03T08:38:59.332Z,9.279812
2022-10-03T08:39:59.312Z,9.279805
2022-10-03T08:40:59.322Z,9.279814
2022-10-03T08:41:59.297Z,9.279819
2022-10-03T08:42:59.252Z,9.279807
2022-10-03T08:43:59.224Z,9.279866
2022-10-03T08:45:00.217Z,9.279954
2022-10-03T08:45:59.307Z,9.280000
2022-10-03T08:46:59.174Z,9.279961
2022-10-03T08:47:59.157Z,9.279885
2022-10-03T08:48:59.130Z,9.279957
2022-10-03T08:50:04.383Z,9.279937
2022-10-03T08:51:01.118Z,9.279860
2022-10-03T08:51:59.075Z,9.279931
2022-10-03T08:52:59.055Z,9.279935
2022-10-03T08:53:59.026Z,9.279893
2022-10-03T08:54:59.004Z,9.279862
2022-10-03T08:55:59.002Z,9.279984
2022-10-03T08:56:59.980Z,9.280025
2022-10-03T08:57:58.935Z,9.279999
2022-10-03T08:58:58.916Z,9.279902
2022-10-03T08:59:58.890Z,9.279927
2022-10-03T09:00:58.896Z,9.279938
2022-10-03T09:01:58.957Z,9.279923
2022-10-03T09:03:31.532Z,9.279965
2022-10-03T09:04:00.802Z,9.279986
2022-10-03T09:04:58.803Z,9.279993
2022-10-03T09:05:58.788Z,9.280005
2022-10-03T09:07:16.618Z,9.279965
2022-10-03T09:08:00.713Z,9.279907
2022-10-03T09:08:58.691Z,9.279882
2022-10-03T09:09:58.675Z,9.279880
2022-10-03T09:10:58.678Z,9.279917
2022-10-03T09:11:58.628Z,9.279927
2022-10-03T09:12:58.605Z,9.279937
2022-10-03T09:13:58.581Z,9.279914
2022-10-03T09:14:58.559Z,9.279874
2022-10-03T09:15:58.593Z,9.279900
2022-10-03T09:16:58.519Z,9.279954
2022-10-03T09:17:58.490Z,9.279880
2022-10-03T09:18:58.479Z,9.279924
2022-10-03T09:19:58.445Z,9.279985
2022-10-03T09:20:58.449Z,9.279978
2022-10-03T09:21:58.405Z,9.279933
2022-10-03T09:22:58.375Z,9.279974
2022-10-03T09:23:58.353Z,9.279907
2022-10-03T09:24:58.331Z,9.279894
2022-10-03T09:25:58.340Z,9.279913
2022-10-03T09:26:58.287Z,9.279940
2022-10-03T09:27:58.296Z,9.279887
2022-10-03T09:28:58.240Z,9.279922
2022-10-03T09:29:58.219Z,9.279930
2022-10-03T09:30:58.266Z,9.279875
2022-10-03T09:31:58.174Z,9.279904
2022-10-03T09:32:58.152Z,9.279958
2022-10-03T09:33:58.129Z,9.279960
2022-10-03T09:34:58.106Z,9.279929
2022-10-03T09:35:58.111Z,9.280006
2022-10-03T09:36:58.062Z,9.280010
2022-10-03T09:37:58.037Z,9.279999
2022-10-03T09:38:58.017Z,9.279948
2022-10-03T09:39:57.989Z,9.279951
2022-10-03T09:40:57.991Z,9.279974
2022-10-03T09:41:57.948Z,9.279968
2022-10-03T09:42:57.924Z,9.279925
2022-10-03T09:43:57.903Z,9.279959
2022-10-03T09:44:57.878Z,9.279908
2022-10-03T09:45:57.879Z,9.279943
2022-10-03T09:46:57.865Z,9.280025
2022-10-03T09:47:57.812Z,9.279914
2022-10-03T09:48:57.787Z,9.279879
2022-10-03T09:49:57.766Z,9.279892
2022-10-03T09:50:57.770Z,9.279918
2022-10-03T09:51:57.720Z,9.279922
2022-10-03T09:52:57.697Z,9.279930
2022-10-03T09:53:57.663Z,9.279789
2022-10-03T09:54:58.652Z,9.279855
2022-10-03T09:55:57.655Z,9.279892
2022-10-03T09:56:57.605Z,9.279897
2022-10-03T09:57:57.583Z,9.279964
2022-10-03T09:58:57.561Z,9.279982
2022-10-03T09:59:57.537Z,9.279996
2022-10-03T10:00:57.564Z,9.279973
2022-10-03T10:01:57.498Z,9.280071
2022-10-03T10:02:57.472Z,9.279977
2022-10-03T10:03:57.491Z,9.279794
2022-10-03T10:04:57.463Z,9.279834
2022-10-03T10:05:57.437Z,9.279993
2022-10-03T10:06:57.385Z,9.280048
2022-10-03T10:07:57.365Z,9.279969
2022-10-03T10:08:57.351Z,9.279963
2022-10-03T10:09:57.328Z,9.280063
2022-10-03T10:10:57.340Z,9.280008
2022-10-03T10:11:57.289Z,9.279869
2022-10-03T10:12:57.274Z,9.279886
2022-10-03T10:14:12.500Z,9.279982
2022-10-03T10:14:59.235Z,9.279890
2022-10-03T10:15:57.404Z,9.279762
2022-10-03T10:16:57.194Z,9.279944
2022-10-03T10:17:57.178Z,9.279821
2022-10-03T10:18:57.156Z,9.280017
2022-10-03T10:19:57.134Z,9.279952
2022-10-03T10:20:57.143Z,9.279787
2022-10-03T10:21:57.096Z,9.279921
2022-10-03T10:22:57.078Z,9.279932
2022-10-03T10:23:57.060Z,9.280374
2022-10-03T10:24:57.039Z,9.280331
2022-10-03T10:25:57.049Z,9.279976
2022-10-03T10:26:56.996Z,9.279717
2022-10-03T10:27:57.101Z,9.279624
2022-10-03T10:28:56.959Z,9.279691
2022-10-03T10:29:56.938Z,9.280155
2022-10-03T10:30:57.013Z,9.280012
2022-10-03T10:31:56.909Z,9.279901
2022-10-03T10:32:56.888Z,9.279834
2022-10-03T10:33:56.864Z,9.279770
2022-10-03T10:34:56.846Z,9.279691
2022-10-03T10:35:56.854Z,9.279626
2022-10-03T10:36:56.801Z,9.279643
2022-10-03T10:37:56.781Z,9.279902
2022-10-03T10:38:56.769Z,9.279847
2022-10-03T10:39:56.737Z,9.279833
2022-10-03T10:40:59.869Z,9.279853
2022-10-03T10:41:57.782Z,9.279797
2022-10-03T10:42:56.684Z,9.279864
2022-10-03T10:43:56.666Z,9.279930
2022-10-03T10:44:56.653Z,9.279956
2022-10-03T10:45:56.655Z,9.279893
2022-10-03T10:46:56.660Z,9.279884
2022-10-03T10:47:56.597Z,9.279941
2022-10-03T10:49:01.409Z,9.280076
2022-10-03T10:49:58.551Z,9.280060
2022-10-03T10:50:56.562Z,9.279916
2022-10-03T10:51:56.515Z,9.279840
2022-10-03T10:52:56.492Z,9.279855
2022-10-03T10:53:56.474Z,9.279895
2022-10-03T10:54:56.458Z,9.279842
2022-10-03T10:55:56.462Z,9.279939
2022-10-03T10:56:56.413Z,9.279933
2022-10-03T10:57:56.392Z,9.279898
2022-10-03T10:58:56.373Z,9.279850
2022-10-03T10:59:56.353Z,9.279884
2022-10-03T11:00:56.432Z,9.279837
2022-10-03T11:01:56.316Z,9.279845
2022-10-03T11:02:56.293Z,9.279793
2022-10-03T11:03:56.275Z,9.279780
2022-10-03T11:04:56.304Z,9.279778
2022-10-03T11:05:56.262Z,9.279724
2022-10-03T11:06:56.224Z,9.279849
2022-10-03T11:07:56.199Z,9.279812
2022-10-03T11:08:56.177Z,9.279841
2022-10-03T11:09:56.154Z,9.279816
2022-10-03T11:10:56.158Z,9.279881
2022-10-03T11:11:56.116Z,9.279883
2022-10-03T11:12:56.097Z,9.279834
2022-10-03T11:13:56.078Z,9.279881
2022-10-03T11:14:56.056Z,9.279768
2022-10-03T11:15:56.147Z,9.279883
2022-10-03T11:16:56.019Z,9.279697
2022-10-03T11:17:56.002Z,9.279902
2022-10-03T11:18:55.981Z,9.279959
2022-10-03T11:19:55.961Z,9.279670
2022-10-03T11:20:55.968Z,9.280054
2022-10-03T11:21:55.924Z,9.280078
2022-10-03T11:22:55.899Z,9.279972
2022-10-03T11:23:55.886Z,9.279902
2022-10-03T11:24:55.865Z,9.279943
2022-10-03T11:25:55.875Z,9.279907
2022-10-03T11:26:55.825Z,9.280055
2022-10-03T11:27:55.861Z,9.279837
2022-10-03T11:28:55.786Z,9.279802
2022-10-03T11:29:55.770Z,9.279726
2022-10-03T11:30:55.780Z,9.279801
2022-10-03T11:31:56.544Z,9.279808
2022-10-03T11:32:55.714Z,9.279764
2022-10-03T11:33:55.690Z,9.279779
2022-10-03T11:34:55.667Z,9.279778
2022-10-03T11:35:55.676Z,9.279733
2022-10-03T11:36:55.634Z,9.279752
2022-10-03T11:37:55.610Z,9.279902
2022-10-03T11:38:55.591Z,9.279836
2022-10-03T11:39:55.575Z,9.279952
2022-10-03T11:40:55.576Z,9.280046
2022-10-03T11:41:55.533Z,9.279978
2022-10-03T11:42:55.510Z,9.279943
2022-10-03T11:44:00.809Z,9.279978